sensor_id;sensor_type;location;lat;lon;timestamp;P1;durP1;ratioP1;P2;durP2;ratioP2
62957;SDS011;49056;48.352;10.926;2023-04-25T00:03:44;0.70;;;0.57;;
62957;SDS011;49056;48.352;10.926;2023-04-25T00:09:06;1.08;;;0.80;;
62957;SDS011;49056;48.352;10.926;2023-04-25T00:14:30;0.85;;;0.68;;
62957;SDS011;49056;48.352;10.926;2023-04-25T00:19:50;1.02;;;0.77;;
62957;SDS011;49056;48.352;10.926;2023-04-25T00:25:10;1.07;;;0.70;;
62957;SDS011;49056;48.352;10.926;2023-04-25T00:30:31;0.57;;;0.50;;
62957;SDS011;49056;48.352;10.926;2023-04-25T00:35:51;0.68;;;0.60;;
62957;SDS011;49056;48.352;10.926;2023-04-25T00:41:11;1.23;;;0.73;;
62957;SDS011;49056;48.352;10.926;2023-04-25T00:46:31;1.23;;;0.87;;
62957;SDS011;49056;48.352;10.926;2023-04-25T00:51:52;0.97;;;0.60;;
62957;SDS011;49056;48.352;10.926;2023-04-25T00:57:12;1.15;;;0.55;;
62957;SDS011;49056;48.352;10.926;2023-04-25T01:02:33;0.82;;;0.50;;
62957;SDS011;49056;48.352;10.926;2023-04-25T01:07:54;1.12;;;0.68;;
62957;SDS011;49056;48.352;10.926;2023-04-25T01:13:14;1.00;;;0.62;;
62957;SDS011;49056;48.352;10.926;2023-04-25T01:18:36;1.40;;;0.75;;
62957;SDS011;49056;48.352;10.926;2023-04-25T01:23:57;1.12;;;0.62;;
62957;SDS011;49056;48.352;10.926;2023-04-25T01:29:18;1.27;;;0.70;;
62957;SDS011;49056;48.352;10.926;2023-04-25T01:34:38;1.90;;;0.77;;
62957;SDS011;49056;48.352;10.926;2023-04-25T01:39:59;1.43;;;0.70;;
62957;SDS011;49056;48.352;10.926;2023-04-25T01:45:19;1.15;;;0.50;;
62957;SDS011;49056;48.352;10.926;2023-04-25T01:50:40;0.93;;;0.53;;
62957;SDS011;49056;48.352;10.926;2023-04-25T01:56:00;0.98;;;0.60;;
62957;SDS011;49056;48.352;10.926;2023-04-25T02:01:20;0.77;;;0.40;;
62957;SDS011;49056;48.352;10.926;2023-04-25T02:06:41;0.98;;;0.50;;
62957;SDS011;49056;48.352;10.926;2023-04-25T02:12:01;0.70;;;0.55;;
62957;SDS011;49056;48.352;10.926;2023-04-25T02:17:21;1.67;;;0.70;;
62957;SDS011;49056;48.352;10.926;2023-04-25T02:22:42;0.95;;;0.60;;
62957;SDS011;49056;48.352;10.926;2023-04-25T02:28:02;1.10;;;0.70;;
62957;SDS011;49056;48.352;10.926;2023-04-25T02:33:23;0.63;;;0.40;;
62957;SDS011;49056;48.352;10.926;2023-04-25T02:38:43;0.40;;;0.37;;
62957;SDS011;49056;48.352;10.926;2023-04-25T02:44:03;1.00;;;0.60;;
62957;SDS011;49056;48.352;10.926;2023-04-25T02:49:23;1.17;;;0.83;;
62957;SDS011;49056;48.352;10.926;2023-04-25T02:54:44;2.33;;;0.70;;
62957;SDS011;49056;48.352;10.926;2023-04-25T03:00:04;0.80;;;0.50;;
62957;SDS011;49056;48.352;10.926;2023-04-25T03:05:25;1.10;;;0.55;;
62957;SDS011;49056;48.352;10.926;2023-04-25T03:10:45;1.15;;;0.60;;
62957;SDS011;49056;48.352;10.926;2023-04-25T03:16:06;2.67;;;0.77;;
62957;SDS011;49056;48.352;10.926;2023-04-25T03:21:26;0.62;;;0.47;;
62957;SDS011;49056;48.352;10.926;2023-04-25T03:26:46;0.87;;;0.53;;
62957;SDS011;49056;48.352;10.926;2023-04-25T03:32:06;0.62;;;0.40;;
62957;SDS011;49056;48.352;10.926;2023-04-25T03:37:27;1.15;;;0.60;;
62957;SDS011;49056;48.352;10.926;2023-04-25T03:42:47;1.05;;;0.55;;
62957;SDS011;49056;48.352;10.926;2023-04-25T03:48:07;0.57;;;0.40;;
62957;SDS011;49056;48.352;10.926;2023-04-25T03:53:28;0.60;;;0.50;;
62957;SDS011;49056;48.352;10.926;2023-04-25T03:58:48;0.45;;;0.45;;
62957;SDS011;49056;48.352;10.926;2023-04-25T04:04:08;0.70;;;0.50;;
62957;SDS011;49056;48.352;10.926;2023-04-25T04:09:29;1.03;;;0.57;;
62957;SDS011;49056;48.352;10.926;2023-04-25T04:14:49;1.37;;;0.68;;
62957;SDS011;49056;48.352;10.926;2023-04-25T04:20:10;1.00;;;0.60;;
62957;SDS011;49056;48.352;10.926;2023-04-25T04:25:31;0.95;;;0.70;;
62957;SDS011;49056;48.352;10.926;2023-04-25T04:30:51;1.02;;;0.60;;
62957;SDS011;49056;48.352;10.926;2023-04-25T04:36:12;0.88;;;0.50;;
62957;SDS011;49056;48.352;10.926;2023-04-25T04:41:33;0.75;;;0.50;;
62957;SDS011;49056;48.352;10.926;2023-04-25T04:46:53;1.05;;;0.52;;
62957;SDS011;49056;48.352;10.926;2023-04-25T04:52:13;0.98;;;0.50;;
62957;SDS011;49056;48.352;10.926;2023-04-25T04:57:34;0.90;;;0.60;;
62957;SDS011;49056;48.352;10.926;2023-04-25T05:02:57;0.80;;;0.50;;
62957;SDS011;49056;48.352;10.926;2023-04-25T05:08:18;0.93;;;0.60;;
62957;SDS011;49056;48.352;10.926;2023-04-25T05:13:38;0.90;;;0.60;;
62957;SDS011;49056;48.352;10.926;2023-04-25T05:18:58;1.35;;;0.52;;
62957;SDS011;49056;48.352;10.926;2023-04-25T05:24:18;0.82;;;0.30;;
62957;SDS011;49056;48.352;10.926;2023-04-25T05:29:39;0.50;;;0.30;;
62957;SDS011;49056;48.352;10.926;2023-04-25T05:34:59;0.63;;;0.40;;
62957;SDS011;49056;48.352;10.926;2023-04-25T05:40:19;0.97;;;0.60;;
62957;SDS011;49056;48.352;10.926;2023-04-25T05:45:40;1.07;;;0.40;;
62957;SDS011;49056;48.352;10.926;2023-04-25T05:51:00;0.75;;;0.60;;
62957;SDS011;49056;48.352;10.926;2023-04-25T05:56:21;0.80;;;0.40;;
62957;SDS011;49056;48.352;10.926;2023-04-25T06:01:41;1.15;;;0.47;;
62957;SDS011;49056;48.352;10.926;2023-04-25T06:07:01;0.37;;;0.37;;
62957;SDS011;49056;48.352;10.926;2023-04-25T06:12:22;0.30;;;0.30;;
62957;SDS011;49056;48.352;10.926;2023-04-25T06:17:42;1.80;;;0.60;;
62957;SDS011;49056;48.352;10.926;2023-04-25T06:23:03;0.65;;;0.50;;
62957;SDS011;49056;48.352;10.926;2023-04-25T06:28:23;0.93;;;0.60;;
62957;SDS011;49056;48.352;10.926;2023-04-25T06:33:44;0.52;;;0.50;;
62957;SDS011;49056;48.352;10.926;2023-04-25T06:39:04;0.63;;;0.47;;
62957;SDS011;49056;48.352;10.926;2023-04-25T06:44:25;0.68;;;0.45;;
62957;SDS011;49056;48.352;10.926;2023-04-25T06:49:46;1.42;;;0.70;;
62957;SDS011;49056;48.352;10.926;2023-04-25T06:55:06;1.42;;;0.60;;
62957;SDS011;49056;48.352;10.926;2023-04-25T07:00:27;1.05;;;0.70;;
62957;SDS011;49056;48.352;10.926;2023-04-25T07:05:48;1.55;;;0.80;;
62957;SDS011;49056;48.352;10.926;2023-04-25T07:11:08;0.50;;;0.40;;
62957;SDS011;49056;48.352;10.926;2023-04-25T07:16:29;1.83;;;0.87;;
62957;SDS011;49056;48.352;10.926;2023-04-25T07:21:49;0.82;;;0.60;;
62957;SDS011;49056;48.352;10.926;2023-04-25T07:27:09;0.55;;;0.37;;
62957;SDS011;49056;48.352;10.926;2023-04-25T07:32:30;0.85;;;0.50;;
62957;SDS011;49056;48.352;10.926;2023-04-25T07:37:50;1.17;;;0.80;;
62957;SDS011;49056;48.352;10.926;2023-04-25T07:43:11;0.77;;;0.60;;
62957;SDS011;49056;48.352;10.926;2023-04-25T07:48:34;0.90;;;0.40;;
62957;SDS011;49056;48.352;10.926;2023-04-25T07:53:55;2.00;;;0.82;;
62957;SDS011;49056;48.352;10.926;2023-04-25T07:59:15;0.50;;;0.50;;
62957;SDS011;49056;48.352;10.926;2023-04-25T08:04:35;0.75;;;0.60;;
62957;SDS011;49056;48.352;10.926;2023-04-25T08:09:56;0.68;;;0.45;;
62957;SDS011;49056;48.352;10.926;2023-04-25T08:15:16;0.77;;;0.50;;
62957;SDS011;49056;48.352;10.926;2023-04-25T08:20:36;0.73;;;0.43;;
62957;SDS011;49056;48.352;10.926;2023-04-25T08:25:57;0.95;;;0.65;;
62957;SDS011;49056;48.352;10.926;2023-04-25T08:31:17;0.50;;;0.50;;
62957;SDS011;49056;48.352;10.926;2023-04-25T08:36:38;2.77;;;0.77;;
62957;SDS011;49056;48.352;10.926;2023-04-25T08:41:58;0.70;;;0.70;;
62957;SDS011;49056;48.352;10.926;2023-04-25T08:47:21;0.90;;;0.50;;
62957;SDS011;49056;48.352;10.926;2023-04-25T08:52:45;1.40;;;0.60;;
62957;SDS011;49056;48.352;10.926;2023-04-25T08:58:10;1.73;;;0.90;;
62957;SDS011;49056;48.352;10.926;2023-04-25T09:03:30;0.93;;;0.50;;
62957;SDS011;49056;48.352;10.926;2023-04-25T09:08:51;1.15;;;0.68;;
62957;SDS011;49056;48.352;10.926;2023-04-25T09:19:35;1.60;;;0.60;;
62957;SDS011;49056;48.352;10.926;2023-04-25T09:24:56;1.25;;;0.70;;
62957;SDS011;49056;48.352;10.926;2023-04-25T09:30:16;0.73;;;0.50;;
62957;SDS011;49056;48.352;10.926;2023-04-25T09:35:37;1.27;;;0.98;;
62957;SDS011;49056;48.352;10.926;2023-04-25T09:40:58;0.52;;;0.40;;
62957;SDS011;49056;48.352;10.926;2023-04-25T09:46:19;0.98;;;0.80;;
62957;SDS011;49056;48.352;10.926;2023-04-25T09:51:41;1.02;;;0.65;;
62957;SDS011;49056;48.352;10.926;2023-04-25T09:57:08;1.40;;;0.90;;
62957;SDS011;49056;48.352;10.926;2023-04-25T10:02:30;1.35;;;0.50;;
62957;SDS011;49056;48.352;10.926;2023-04-25T10:07:52;0.82;;;0.50;;
62957;SDS011;49056;48.352;10.926;2023-04-25T10:13:13;2.50;;;0.73;;
62957;SDS011;49056;48.352;10.926;2023-04-25T10:18:34;1.65;;;0.60;;
62957;SDS011;49056;48.352;10.926;2023-04-25T10:23:55;1.53;;;0.37;;
62957;SDS011;49056;48.352;10.926;2023-04-25T10:29:21;0.80;;;0.50;;
62957;SDS011;49056;48.352;10.926;2023-04-25T10:34:43;1.27;;;0.43;;
62957;SDS011;49056;48.352;10.926;2023-04-25T10:40:10;1.30;;;0.75;;
62957;SDS011;49056;48.352;10.926;2023-04-25T10:45:31;0.90;;;0.70;;
62957;SDS011;49056;48.352;10.926;2023-04-25T10:51:11;1.05;;;0.62;;
62957;SDS011;49056;48.352;10.926;2023-04-25T10:56:41;0.50;;;0.43;;
62957;SDS011;49056;48.352;10.926;2023-04-25T11:02:11;1.02;;;0.60;;
62957;SDS011;49056;48.352;10.926;2023-04-25T11:07:39;0.88;;;0.45;;
62957;SDS011;49056;48.352;10.926;2023-04-25T11:13:03;1.50;;;0.68;;
62957;SDS011;49056;48.352;10.926;2023-04-25T11:18:25;0.75;;;0.57;;
62957;SDS011;49056;48.352;10.926;2023-04-25T11:23:46;0.88;;;0.40;;
62957;SDS011;49056;48.352;10.926;2023-04-25T11:29:06;1.17;;;0.75;;
62957;SDS011;49056;48.352;10.926;2023-04-25T11:34:27;0.90;;;0.68;;
62957;SDS011;49056;48.352;10.926;2023-04-25T11:39:51;0.70;;;0.40;;
62957;SDS011;49056;48.352;10.926;2023-04-25T11:45:11;1.25;;;0.60;;
62957;SDS011;49056;48.352;10.926;2023-04-25T11:50:32;1.20;;;0.40;;
62957;SDS011;49056;48.352;10.926;2023-04-25T11:55:52;0.62;;;0.60;;
62957;SDS011;49056;48.352;10.926;2023-04-25T12:01:15;0.90;;;0.50;;
62957;SDS011;49056;48.352;10.926;2023-04-25T12:06:45;1.15;;;0.62;;
62957;SDS011;49056;48.352;10.926;2023-04-25T12:12:09;1.08;;;0.65;;
62957;SDS011;49056;48.352;10.926;2023-04-25T12:17:30;1.90;;;0.50;;
62957;SDS011;49056;48.352;10.926;2023-04-25T12:22:50;1.08;;;0.45;;
62957;SDS011;49056;48.352;10.926;2023-04-25T12:33:33;0.60;;;0.50;;
62957;SDS011;49056;48.352;10.926;2023-04-25T12:38:53;0.73;;;0.50;;
62957;SDS011;49056;48.352;10.926;2023-04-25T12:44:13;0.73;;;0.45;;
62957;SDS011;49056;48.352;10.926;2023-04-25T12:49:34;0.52;;;0.30;;
62957;SDS011;49056;48.352;10.926;2023-04-25T12:54:54;0.70;;;0.60;;
62957;SDS011;49056;48.352;10.926;2023-04-25T13:00:14;0.60;;;0.33;;
62957;SDS011;49056;48.352;10.926;2023-04-25T13:05:38;1.02;;;0.60;;
62957;SDS011;49056;48.352;10.926;2023-04-25T13:10:58;1.50;;;0.60;;
62957;SDS011;49056;48.352;10.926;2023-04-25T13:16:18;0.50;;;0.30;;
62957;SDS011;49056;48.352;10.926;2023-04-25T13:21:40;0.55;;;0.40;;
62957;SDS011;49056;48.352;10.926;2023-04-25T13:27:01;0.55;;;0.40;;
62957;SDS011;49056;48.352;10.926;2023-04-25T13:32:21;0.75;;;0.55;;
62957;SDS011;49056;48.352;10.926;2023-04-25T13:37:41;0.75;;;0.32;;
62957;SDS011;49056;48.352;10.926;2023-04-25T13:43:02;0.32;;;0.28;;
62957;SDS011;49056;48.352;10.926;2023-04-25T13:48:23;0.57;;;0.45;;
62957;SDS011;49056;48.352;10.926;2023-04-25T13:53:44;1.20;;;0.70;;
62957;SDS011;49056;48.352;10.926;2023-04-25T13:59:05;0.93;;;0.60;;
62957;SDS011;49056;48.352;10.926;2023-04-25T14:04:25;0.70;;;0.33;;
62957;SDS011;49056;48.352;10.926;2023-04-25T14:09:46;1.48;;;0.50;;
62957;SDS011;49056;48.352;10.926;2023-04-25T14:15:06;0.47;;;0.40;;
62957;SDS011;49056;48.352;10.926;2023-04-25T14:20:27;0.50;;;0.30;;
62957;SDS011;49056;48.352;10.926;2023-04-25T14:25:47;0.65;;;0.40;;
62957;SDS011;49056;48.352;10.926;2023-04-25T14:31:07;1.30;;;0.50;;
62957;SDS011;49056;48.352;10.926;2023-04-25T14:36:28;0.60;;;0.43;;
62957;SDS011;49056;48.352;10.926;2023-04-25T14:41:48;1.15;;;0.60;;
62957;SDS011;49056;48.352;10.926;2023-04-25T14:47:08;0.62;;;0.43;;
62957;SDS011;49056;48.352;10.926;2023-04-25T14:52:29;0.55;;;0.37;;
62957;SDS011;49056;48.352;10.926;2023-04-25T14:57:49;0.55;;;0.40;;
62957;SDS011;49056;48.352;10.926;2023-04-25T15:03:10;0.77;;;0.40;;
62957;SDS011;49056;48.352;10.926;2023-04-25T15:08:33;0.88;;;0.40;;
62957;SDS011;49056;48.352;10.926;2023-04-25T15:13:53;0.75;;;0.40;;
62957;SDS011;49056;48.352;10.926;2023-04-25T15:19:13;1.50;;;0.98;;
62957;SDS011;49056;48.352;10.926;2023-04-25T15:24:34;0.65;;;0.40;;
62957;SDS011;49056;48.352;10.926;2023-04-25T15:29:54;1.42;;;0.65;;
62957;SDS011;49056;48.352;10.926;2023-04-25T15:35:14;1.47;;;0.77;;
62957;SDS011;49056;48.352;10.926;2023-04-25T15:40:35;2.20;;;1.00;;
62957;SDS011;49056;48.352;10.926;2023-04-25T15:45:56;1.25;;;0.70;;
62957;SDS011;49056;48.352;10.926;2023-04-25T15:51:16;1.20;;;0.70;;
62957;SDS011;49056;48.352;10.926;2023-04-25T15:56:36;0.97;;;0.47;;
62957;SDS011;49056;48.352;10.926;2023-04-25T16:01:57;1.42;;;0.70;;
62957;SDS011;49056;48.352;10.926;2023-04-25T16:07:17;1.25;;;0.60;;
62957;SDS011;49056;48.352;10.926;2023-04-25T16:12:38;1.12;;;0.60;;
62957;SDS011;49056;48.352;10.926;2023-04-25T16:17:58;1.40;;;0.60;;
62957;SDS011;49056;48.352;10.926;2023-04-25T16:23:18;2.12;;;0.88;;
62957;SDS011;49056;48.352;10.926;2023-04-25T16:28:39;1.48;;;1.00;;
62957;SDS011;49056;48.352;10.926;2023-04-25T16:33:59;2.13;;;1.10;;
62957;SDS011;49056;48.352;10.926;2023-04-25T16:39:19;2.28;;;1.10;;
62957;SDS011;49056;48.352;10.926;2023-04-25T16:44:41;2.30;;;1.05;;
62957;SDS011;49056;48.352;10.926;2023-04-25T16:50:01;1.35;;;0.82;;
62957;SDS011;49056;48.352;10.926;2023-04-25T16:55:22;1.87;;;0.90;;
62957;SDS011;49056;48.352;10.926;2023-04-25T17:00:42;1.20;;;0.70;;
62957;SDS011;49056;48.352;10.926;2023-04-25T17:06:02;0.87;;;0.70;;
62957;SDS011;49056;48.352;10.926;2023-04-25T17:11:23;1.70;;;0.90;;
62957;SDS011;49056;48.352;10.926;2023-04-25T17:16:43;1.10;;;0.70;;
62957;SDS011;49056;48.352;10.926;2023-04-25T17:22:03;1.73;;;1.00;;
62957;SDS011;49056;48.352;10.926;2023-04-25T17:27:24;1.12;;;0.70;;
62957;SDS011;49056;48.352;10.926;2023-04-25T17:32:44;2.17;;;1.10;;
62957;SDS011;49056;48.352;10.926;2023-04-25T17:38:05;1.07;;;0.60;;
62957;SDS011;49056;48.352;10.926;2023-04-25T17:43:25;1.33;;;0.95;;
62957;SDS011;49056;48.352;10.926;2023-04-25T17:48:46;1.77;;;0.85;;
62957;SDS011;49056;48.352;10.926;2023-04-25T17:54:07;2.33;;;1.08;;
62957;SDS011;49056;48.352;10.926;2023-04-25T17:59:27;2.12;;;1.12;;
62957;SDS011;49056;48.352;10.926;2023-04-25T18:04:48;1.90;;;0.85;;
62957;SDS011;49056;48.352;10.926;2023-04-25T18:10:08;2.85;;;1.15;;
62957;SDS011;49056;48.352;10.926;2023-04-25T18:15:30;2.33;;;1.33;;
62957;SDS011;49056;48.352;10.926;2023-04-25T18:20:51;1.10;;;0.80;;
62957;SDS011;49056;48.352;10.926;2023-04-25T18:26:12;3.15;;;1.62;;
62957;SDS011;49056;48.352;10.926;2023-04-25T18:31:32;1.27;;;1.10;;
62957;SDS011;49056;48.352;10.926;2023-04-25T18:36:52;2.47;;;1.37;;
62957;SDS011;49056;48.352;10.926;2023-04-25T18:42:14;1.73;;;1.08;;
62957;SDS011;49056;48.352;10.926;2023-04-25T18:47:35;2.50;;;1.40;;
62957;SDS011;49056;48.352;10.926;2023-04-25T18:52:56;2.42;;;1.45;;
62957;SDS011;49056;48.352;10.926;2023-04-25T18:58:16;2.63;;;1.03;;
62957;SDS011;49056;48.352;10.926;2023-04-25T19:03:36;2.40;;;1.30;;
62957;SDS011;49056;48.352;10.926;2023-04-25T19:08:57;2.85;;;1.25;;
62957;SDS011;49056;48.352;10.926;2023-04-25T19:14:17;1.60;;;1.30;;
62957;SDS011;49056;48.352;10.926;2023-04-25T19:19:37;1.43;;;0.93;;
62957;SDS011;49056;48.352;10.926;2023-04-25T19:24:58;1.97;;;1.17;;
62957;SDS011;49056;48.352;10.926;2023-04-25T19:30:18;2.53;;;1.37;;
62957;SDS011;49056;48.352;10.926;2023-04-25T19:35:38;1.90;;;1.55;;
62957;SDS011;49056;48.352;10.926;2023-04-25T19:40:58;2.17;;;1.27;;
62957;SDS011;49056;48.352;10.926;2023-04-25T19:46:19;2.08;;;1.20;;
62957;SDS011;49056;48.352;10.926;2023-04-25T19:51:40;2.28;;;1.10;;
62957;SDS011;49056;48.352;10.926;2023-04-25T19:57:00;1.75;;;0.85;;
62957;SDS011;49056;48.352;10.926;2023-04-25T20:02:21;1.67;;;1.10;;
62957;SDS011;49056;48.352;10.926;2023-04-25T20:07:41;1.83;;;1.10;;
62957;SDS011;49056;48.352;10.926;2023-04-25T20:13:01;2.75;;;1.50;;
62957;SDS011;49056;48.352;10.926;2023-04-25T20:18:22;2.90;;;1.40;;
62957;SDS011;49056;48.352;10.926;2023-04-25T20:23:42;1.37;;;0.85;;
62957;SDS011;49056;48.352;10.926;2023-04-25T20:29:03;1.80;;;1.10;;
62957;SDS011;49056;48.352;10.926;2023-04-25T20:34:23;2.73;;;1.17;;
62957;SDS011;49056;48.352;10.926;2023-04-25T20:39:44;2.42;;;1.10;;
62957;SDS011;49056;48.352;10.926;2023-04-25T20:45:04;1.80;;;1.15;;
62957;SDS011;49056;48.352;10.926;2023-04-25T20:50:26;1.33;;;0.90;;
62957;SDS011;49056;48.352;10.926;2023-04-25T20:55:47;1.25;;;0.80;;
62957;SDS011;49056;48.352;10.926;2023-04-25T21:01:07;1.87;;;1.00;;
62957;SDS011;49056;48.352;10.926;2023-04-25T21:06:27;1.98;;;1.10;;
62957;SDS011;49056;48.352;10.926;2023-04-25T21:11:48;1.80;;;1.10;;
62957;SDS011;49056;48.352;10.926;2023-04-25T21:17:10;1.83;;;1.00;;
62957;SDS011;49056;48.352;10.926;2023-04-25T21:22:30;1.58;;;0.98;;
62957;SDS011;49056;48.352;10.926;2023-04-25T21:27:52;1.75;;;1.10;;
62957;SDS011;49056;48.352;10.926;2023-04-25T21:33:12;1.87;;;0.93;;
62957;SDS011;49056;48.352;10.926;2023-04-25T21:38:33;1.60;;;0.97;;
62957;SDS011;49056;48.352;10.926;2023-04-25T21:43:53;2.53;;;1.00;;
62957;SDS011;49056;48.352;10.926;2023-04-25T21:49:14;1.30;;;0.93;;
62957;SDS011;49056;48.352;10.926;2023-04-25T21:54:34;0.98;;;0.75;;
62957;SDS011;49056;48.352;10.926;2023-04-25T21:59:55;2.12;;;1.00;;
62957;SDS011;49056;48.352;10.926;2023-04-25T22:05:16;2.47;;;1.17;;
62957;SDS011;49056;48.352;10.926;2023-04-25T22:10:36;2.03;;;1.20;;
62957;SDS011;49056;48.352;10.926;2023-04-25T22:15:58;1.70;;;0.98;;
62957;SDS011;49056;48.352;10.926;2023-04-25T22:21:19;1.57;;;0.97;;
62957;SDS011;49056;48.352;10.926;2023-04-25T22:26:39;2.33;;;1.08;;
62957;SDS011;49056;48.352;10.926;2023-04-25T22:31:59;1.63;;;0.80;;
62957;SDS011;49056;48.352;10.926;2023-04-25T22:37:20;1.75;;;1.00;;
62957;SDS011;49056;48.352;10.926;2023-04-25T22:42:41;2.00;;;1.12;;
62957;SDS011;49056;48.352;10.926;2023-04-25T22:48:02;1.48;;;0.80;;
62957;SDS011;49056;48.352;10.926;2023-04-25T22:53:22;2.20;;;0.93;;
62957;SDS011;49056;48.352;10.926;2023-04-25T22:58:42;1.65;;;0.77;;
62957;SDS011;49056;48.352;10.926;2023-04-25T23:04:03;1.97;;;0.80;;
62957;SDS011;49056;48.352;10.926;2023-04-25T23:09:23;1.62;;;0.98;;
62957;SDS011;49056;48.352;10.926;2023-04-25T23:14:47;2.08;;;1.10;;
62957;SDS011;49056;48.352;10.926;2023-04-25T23:20:08;1.40;;;0.80;;
62957;SDS011;49056;48.352;10.926;2023-04-25T23:25:30;2.58;;;1.10;;
62957;SDS011;49056;48.352;10.926;2023-04-25T23:30:50;1.35;;;0.65;;
62957;SDS011;49056;48.352;10.926;2023-04-25T23:36:17;2.53;;;0.98;;
62957;SDS011;49056;48.352;10.926;2023-04-25T23:41:41;1.45;;;0.90;;
62957;SDS011;49056;48.352;10.926;2023-04-25T23:47:01;1.25;;;0.75;;
62957;SDS011;49056;48.352;10.926;2023-04-25T23:52:21;1.80;;;0.75;;
62957;SDS011;49056;48.352;10.926;2023-04-25T23:57:42;1.10;;;0.70;;
